Weather History for KSDY - January, 2014

Change the Weather History Date:

Friday, January 10, 2014

  Actual Average Record
Temperature  
Mean Temperature 29 °F -  
Max Temperature 35 °F 17 °F 52 °F (1990)
Min Temperature 23 °F -3 °F -35 °F (1982)
Degree Days  
Heating Degree Days 36    
Moisture  
Dew Point 20 °F    
Average Humidity 68    
Maximum Humidity 86    
Minimum Humidity 56    
Precipitation  
Precipitation 0.00 in - - ()
Sea Level Pressure  
Sea Level Pressure 29.53 in    
Wind  
Wind Speed 12 mph (WSW)    
Max Wind Speed 20 mph    
Max Gust Speed 25 mph    
Visibility 10 miles    
Events      
Averages and records for this station are not official NWS values.
T = Trace of Precipitation, MM = Missing Value Source: NWS Daily Summary

Daily Weather History Graph

Daily Weather History Graph

Search for Another Location

Airport or City:

Trip Planner

Search our weather history database for the weather conditions in past years. The results will help you decide how hot, cold, wet, or windy it might be!

Date:

Astronomy

Jan. 10, 2014 Rise Set
Actual Time 7:43 AM MST 4:25 PM MST
Civil Twilight 7:08 AM MST 5:01 PM MST
Nautical Twilight 6:29 AM MST 5:39 PM MST
Astronomical Twilight 5:52 AM MST 6:16 PM MST
Moon 12:37 PM MST (1/10) 2:46 AM MST (1/10)
Length of Visible Light 9h 52m
Length of Day
8h 42m
Waxing Gibbous, 75% of the Moon is Illuminated
Jan 10
Waxing Gibbous
Jan 15
Full
Jan 23
Last Quarter
Jan 30
New
Feb 6
First Quarter

Hourly Weather History & Observations

Time (MST) Temp. Windchill Dew Point Humidity Pressure Visibility Wind Dir Wind Speed Gust Speed Precip Events Conditions
12:15 AM 35.6 °F 25.5 °F 24.8 °F 65% 29.51 in 10.0 mi West 17.3 mph 21.9 mph N/A   Clear
12:35 AM 35.6 °F 26.2 °F 23.0 °F 60% 29.51 in 10.0 mi West 15.0 mph - N/A   Clear
12:55 AM 33.8 °F 24.8 °F 24.8 °F 70% 29.51 in 10.0 mi West 12.7 mph - N/A   Clear
1:15 AM 33.8 °F 25.3 °F 23.0 °F 65% 29.52 in 10.0 mi WSW 11.5 mph - N/A   Clear
1:35 AM 32.0 °F 23.6 °F 24.8 °F 75% 29.51 in 10.0 mi West 10.4 mph - N/A   Clear
1:55 AM 30.2 °F 20.2 °F 21.2 °F 69% 29.51 in 10.0 mi WSW 12.7 mph - N/A   Clear
2:15 AM 30.2 °F 19.8 °F 21.2 °F 69% 29.52 in 10.0 mi WSW 13.8 mph - N/A   Clear
2:35 AM 30.2 °F 19.8 °F 21.2 °F 69% 29.52 in 10.0 mi WSW 13.8 mph - N/A   Clear
2:55 AM 30.2 °F 19.3 °F 21.2 °F 69% 29.51 in 10.0 mi West 15.0 mph 19.6 mph N/A   Clear
3:15 AM 32.0 °F 21.2 °F 21.2 °F 64% 29.50 in 10.0 mi West 16.1 mph 21.9 mph N/A   Clear
3:35 AM 30.2 °F 18.9 °F 19.4 °F 64% 29.50 in 10.0 mi West 16.1 mph - N/A   Clear
4:15 AM 30.2 °F 19.8 °F 19.4 °F 64% 29.50 in 10.0 mi West 13.8 mph - N/A   Clear
4:35 AM 30.2 °F 19.8 °F 19.4 °F 64% 29.49 in 10.0 mi West 13.8 mph - N/A   Clear
4:55 AM 30.2 °F 20.2 °F 19.4 °F 64% 29.49 in 10.0 mi WSW 12.7 mph - N/A   Clear
5:15 AM 30.2 °F 19.8 °F 19.4 °F 64% 29.48 in 10.0 mi West 13.8 mph - N/A   Clear
5:35 AM 30.2 °F 19.3 °F 19.4 °F 64% 29.48 in 10.0 mi West 15.0 mph - N/A   Clear
6:15 AM 32.0 °F 21.6 °F 19.4 °F 60% 29.48 in 10.0 mi West 15.0 mph - N/A   Clear
6:35 AM 30.2 °F 19.8 °F 17.6 °F 60% 29.48 in 10.0 mi West 13.8 mph 20.7 mph N/A   Clear
6:55 AM 30.2 °F 20.2 °F 17.6 °F 60% 29.49 in 10.0 mi West 12.7 mph - N/A   Clear
7:15 AM 28.4 °F 17.5 °F 17.6 °F 64% 29.49 in 10.0 mi WSW 13.8 mph - N/A   Partly Cloudy
7:35 AM 28.4 °F 18.5 °F 17.6 °F 64% 29.49 in 10.0 mi WSW 11.5 mph - N/A   Mostly Cloudy
7:55 AM 28.4 °F 18.5 °F 17.6 °F 64% 29.49 in 10.0 mi SSW 11.5 mph - N/A   Overcast
8:15 AM 23.0 °F 13.9 °F 15.8 °F 74% 29.49 in 10.0 mi SW 8.1 mph - N/A   Mostly Cloudy
8:35 AM 28.4 °F 19.7 °F 15.8 °F 59% 29.49 in 10.0 mi WSW 9.2 mph - N/A   Partly Cloudy
8:55 AM 26.6 °F 16.8 °F 17.6 °F 69% 29.50 in 10.0 mi SSW 10.4 mph - N/A   Clear
9:15 AM 26.6 °F 16.2 °F 19.4 °F 74% 29.50 in 10.0 mi SW 11.5 mph - N/A   Clear
9:35 AM 30.2 °F 20.8 °F 19.4 °F 64% 29.50 in 10.0 mi WSW 11.5 mph - N/A   Clear
9:55 AM 32.0 °F 24.2 °F 19.4 °F 60% 29.51 in 10.0 mi SW 9.2 mph - N/A   Clear
10:15 AM 30.2 °F 22.6 °F 19.4 °F 64% 29.52 in 10.0 mi SW 8.1 mph - N/A   Clear
10:35 AM 28.4 °F 19.1 °F 17.6 °F 64% 29.52 in 10.0 mi SSW 10.4 mph - N/A   Clear
10:55 AM 28.4 °F 19.1 °F 19.4 °F 69% 29.51 in 10.0 mi WSW 10.4 mph - N/A   Clear
11:15 AM 33.8 °F 24.3 °F 21.2 °F 60% 29.50 in 10.0 mi SW 13.8 mph - N/A   Clear
11:35 AM 35.6 °F 27.5 °F 21.2 °F 56% 29.50 in 10.0 mi SW 11.5 mph - N/A   Clear
11:55 AM 32.0 °F 25.6 °F 21.2 °F 64% 29.49 in 10.0 mi South 6.9 mph - N/A   Clear
12:15 PM 33.8 °F - 23.0 °F 65% 29.49 in 10.0 mi Calm Calm - N/A   Clear
12:35 PM 35.6 °F 28.6 °F 21.2 °F 56% 29.48 in 10.0 mi SW 9.2 mph - N/A   Clear
12:55 PM 35.6 °F 28.6 °F 21.2 °F 56% 29.48 in 10.0 mi SW 9.2 mph - N/A   Clear
1:15 PM 35.6 °F 29.2 °F 23.0 °F 60% 29.47 in 10.0 mi WSW 8.1 mph - N/A   Clear
1:35 PM 35.6 °F 29.9 °F 23.0 °F 60% 29.47 in 10.0 mi West 6.9 mph - N/A   Clear
1:55 PM 35.6 °F 31.7 °F 21.2 °F 56% 29.48 in 10.0 mi West 4.6 mph - N/A   Clear
2:15 PM 35.6 °F - 21.2 °F 56% 29.48 in 10.0 mi Calm Calm - N/A   Scattered Clouds
2:35 PM 35.6 °F - 24.8 °F 65% 29.49 in 10.0 mi Calm Calm - N/A   Scattered Clouds
2:55 PM 33.8 °F 27.7 °F 21.2 °F 60% 29.50 in 10.0 mi SE 6.9 mph - N/A   Mostly Cloudy
3:15 PM 32.0 °F 25.6 °F 23.0 °F 69% 29.50 in 10.0 mi South 6.9 mph - N/A   Partly Cloudy
3:35 PM 30.2 °F 23.4 °F 21.2 °F 69% 29.51 in 10.0 mi SW 6.9 mph - N/A   Clear
3:55 PM 30.2 °F 24.3 °F 21.2 °F 69% 29.51 in 10.0 mi SW 5.8 mph - N/A   Clear
4:15 PM 30.2 °F 24.3 °F 23.0 °F 75% 29.52 in 10.0 mi SW 5.8 mph - N/A   Clear
4:35 PM 28.4 °F 24.6 °F 21.2 °F 74% 29.52 in 10.0 mi SSW 3.5 mph - N/A   Clear
5:15 PM 28.4 °F 24.6 °F 21.2 °F 74% 29.53 in 10.0 mi SSW 3.5 mph - N/A   Clear
5:35 PM 24.8 °F 20.5 °F 19.4 °F 80% 29.54 in 10.0 mi WNW 3.5 mph - N/A   Clear
5:55 PM 24.8 °F - 19.4 °F 80% 29.54 in 10.0 mi Calm Calm - N/A   Clear
6:15 PM 28.4 °F 21.2 °F 24.8 °F 86% 29.54 in 10.0 mi NW 6.9 mph - N/A   Clear
6:35 PM 28.4 °F 18.5 °F 21.2 °F 74% 29.55 in 10.0 mi WNW 11.5 mph 16.1 mph N/A   Partly Cloudy
6:55 PM 28.4 °F 17.0 °F 19.4 °F 69% 29.55 in 10.0 mi WNW 15.0 mph - N/A   Scattered Clouds
7:15 PM 28.4 °F 15.4 °F 19.4 °F 69% 29.56 in 10.0 mi WNW 19.6 mph - N/A   Clear
7:35 PM 26.6 °F 13.4 °F 19.4 °F 74% 29.56 in 10.0 mi WNW 18.4 mph - N/A   Clear
7:55 PM 26.6 °F 14.3 °F 19.4 °F 74% 29.58 in 10.0 mi NW 16.1 mph - N/A   Clear
8:15 PM 26.6 °F 13.8 °F 19.4 °F 74% 29.58 in 10.0 mi WNW 17.3 mph - N/A   Clear
8:35 PM 26.6 °F 14.3 °F 19.4 °F 74% 29.59 in 10.0 mi WNW 16.1 mph - N/A   Clear
8:55 PM 26.6 °F 14.7 °F 19.4 °F 74% 29.60 in 10.0 mi WNW 15.0 mph - N/A   Clear
9:15 PM 26.6 °F 14.7 °F 19.4 °F 74% 29.61 in 10.0 mi WNW 15.0 mph - N/A   Clear
9:35 PM 26.6 °F 15.7 °F 19.4 °F 74% 29.62 in 10.0 mi WNW 12.7 mph - N/A   Clear
9:55 PM 24.8 °F 13.4 °F 19.4 °F 80% 29.63 in 10.0 mi WNW 12.7 mph - N/A   Clear
10:15 PM 26.6 °F 14.7 °F 19.4 °F 74% 29.64 in 10.0 mi West 15.0 mph - N/A   Scattered Clouds
10:35 PM 26.6 °F 15.7 °F 19.4 °F 74% 29.64 in 10.0 mi West 12.7 mph - N/A   Overcast
10:55 PM 24.8 °F 12.9 °F 17.6 °F 74% 29.65 in 10.0 mi West 13.8 mph - N/A   Scattered Clouds
11:15 PM 26.6 °F 13.4 °F 17.6 °F 69% 29.66 in 10.0 mi WNW 18.4 mph 25.3 mph N/A   Clear
11:35 PM 24.8 °F 12.9 °F 17.6 °F 74% 29.67 in 10.0 mi WNW 13.8 mph - N/A   Clear
11:55 PM 24.8 °F 12.9 °F 17.6 °F 74% 29.67 in 10.0 mi WNW 13.8 mph - N/A   Clear